Time;durP1;ratioP1;P1;durP2;ratioP2;P2;SDS_P1;SDS_P2;PMS_P1;PMS_P2;Temp;Humidity;BMP_temperature;BMP_pressure;BME280_temperature;BME280_humidity;BME280_pressure;Samples;Min_cycle;Max_cycle;Signal;HPM_P1;HPM_P2
2022/06/30 05:26:52;;;;;;;5.18;2.50;;;;;;;;;;7294733;19;20295;-87
2022/06/30 05:29:17;;;;;;;6.20;2.55;;;;;;;;;;7347472;19;20023;-82
2022/06/30 05:31:43;;;;;;;7.90;3.07;;;;;;;;;;7363981;19;20006;-82
2022/06/30 05:34:08;;;;;;;5.20;2.78;;;;;;;;;;7362467;19;20219;-82
2022/06/30 05:36:33;;;;;;;5.63;2.67;;;;;;;;;;7376810;19;20006;-82
2022/06/30 05:38:58;;;;;;;6.90;2.67;;;;;;;;;;7368916;19;19999;-86
2022/06/30 05:41:23;;;;;;;7.73;3.20;;;;;;;;;;7351920;19;20244;-82
2022/06/30 05:43:48;;;;;;;4.87;2.70;;;;;;;;;;7358584;19;20011;-84
2022/06/30 05:46:14;;;;;;;9.43;3.30;;;;;;;;;;7369953;19;20312;-82
2022/06/30 05:48:39;;;;;;;6.18;2.97;;;;;;;;;;7368331;19;20014;-83
2022/06/30 05:51:04;;;;;;;7.70;3.30;;;;;;;;;;7373692;19;20018;-83
2022/06/30 05:53:29;;;;;;;6.65;3.10;;;;;;;;;;7366238;19;20022;-83
2022/06/30 05:55:55;;;;;;;7.35;3.17;;;;;;;;;;7372420;19;20014;-86
2022/06/30 05:58:20;;;;;;;5.40;2.60;;;;;;;;;;7361209;19;20027;-86
2022/06/30 06:00:45;;;;;;;7.27;2.80;;;;;;;;;;7355545;19;20254;-82
2022/06/30 06:03:11;;;;;;;5.60;2.85;;;;;;;;;;7361140;19;19999;-82
2022/06/30 06:05:36;;;;;;;6.43;2.87;;;;;;;;;;7364573;19;20011;-86
2022/06/30 06:08:08;;;;;;;6.20;2.80;;;;;;;;;;7356639;19;20014;-82
2022/06/30 06:10:33;;;;;;;7.45;3.25;;;;;;;;;;7374309;19;20247;-82
2022/06/30 06:12:58;;;;;;;7.50;2.90;;;;;;;;;;7375853;19;20478;-83
2022/06/30 06:15:24;;;;;;;6.87;3.13;;;;;;;;;;7376737;19;20033;-82
2022/06/30 06:17:49;;;;;;;7.23;2.70;;;;;;;;;;7371613;19;20239;-81
2022/06/30 06:20:15;;;;;;;12.20;3.30;;;;;;;;;;7369683;19;20056;-81
2022/06/30 06:22:41;;;;;;;9.07;2.85;;;;;;;;;;7375473;19;20003;-83
2022/06/30 06:25:06;;;;;;;5.75;2.92;;;;;;;;;;7370806;19;20018;-86
2022/06/30 06:27:31;;;;;;;4.72;2.50;;;;;;;;;;7369599;19;20680;-82
2022/06/30 06:29:57;;;;;;;5.78;3.17;;;;;;;;;;7365615;19;20017;-84
2022/06/30 06:32:22;;;;;;;10.53;2.93;;;;;;;;;;7368823;19;20516;-82
2022/06/30 06:34:47;;;;;;;5.25;2.70;;;;;;;;;;7368456;19;20159;-83
2022/06/30 06:37:12;;;;;;;11.87;3.20;;;;;;;;;;7372513;19;20012;-82
2022/06/30 06:39:37;;;;;;;6.83;2.80;;;;;;;;;;7371670;19;20275;-86
2022/06/30 06:42:03;;;;;;;5.50;2.93;;;;;;;;;;7371611;19;20235;-84
2022/06/30 06:44:28;;;;;;;6.43;2.60;;;;;;;;;;7368888;19;20394;-82
2022/06/30 06:46:53;;;;;;;5.00;2.50;;;;;;;;;;7357013;19;20256;-82
2022/06/30 06:49:18;;;;;;;9.30;3.00;;;;;;;;;;7361819;19;20006;-83
2022/06/30 06:51:43;;;;;;;6.85;2.92;;;;;;;;;;7357913;19;20011;-84
2022/06/30 06:54:09;;;;;;;5.73;2.70;;;;;;;;;;7371736;19;20014;-85
2022/06/30 06:56:34;;;;;;;9.83;3.10;;;;;;;;;;7375085;19;20243;-82
2022/06/30 06:58:59;;;;;;;8.90;2.93;;;;;;;;;;7375198;19;20025;-81
2022/06/30 07:01:25;;;;;;;7.50;2.60;;;;;;;;;;7380327;19;20075;-78
2022/06/30 07:03:50;;;;;;;11.83;3.10;;;;;;;;;;7373946;19;20030;-82
2022/06/30 07:06:15;;;;;;;9.40;3.23;;;;;;;;;;7374684;19;20002;-80
2022/06/30 07:08:41;;;;;;;7.93;2.40;;;;;;;;;;7380629;19;20126;-79
2022/06/30 07:11:07;;;;;;;7.00;2.80;;;;;;;;;;7378064;19;20046;-80
2022/06/30 07:13:35;;;;;;;7.82;2.50;;;;;;;;;;7375896;19;20007;-80
2022/06/30 07:16:00;;;;;;;8.68;2.58;;;;;;;;;;7378641;19;20489;-84
2022/06/30 07:18:26;;;;;;;8.25;3.17;;;;;;;;;;7378672;19;19998;-81
2022/06/30 07:20:51;;;;;;;5.70;2.43;;;;;;;;;;7377584;19;20443;-81
2022/06/30 07:23:16;;;;;;;5.23;2.70;;;;;;;;;;7378244;19;20260;-80
2022/06/30 07:25:41;;;;;;;6.63;2.50;;;;;;;;;;7375953;19;20405;-80
2022/06/30 07:28:06;;;;;;;6.73;2.50;;;;;;;;;;7377110;19;20220;-81
2022/06/30 07:30:32;;;;;;;5.73;2.53;;;;;;;;;;7378376;19;20017;-79
2022/06/30 07:32:57;;;;;;;5.93;2.50;;;;;;;;;;7368134;19;20001;-80
2022/06/30 07:35:22;;;;;;;7.83;2.80;;;;;;;;;;7373890;19;20014;-79
2022/06/30 07:37:47;;;;;;;5.38;2.63;;;;;;;;;;7371683;19;20247;-78
2022/06/30 07:40:14;;;;;;;7.20;2.63;;;;;;;;;;7365737;19;20479;-80
2022/06/30 07:42:40;;;;;;;6.40;2.33;;;;;;;;;;7377742;19;20276;-82
2022/06/30 07:45:06;;;;;;;6.00;2.70;;;;;;;;;;7376723;19;20002;-80
2022/06/30 07:47:31;;;;;;;6.03;2.53;;;;;;;;;;7378191;19;20499;-81
2022/06/30 07:49:56;;;;;;;7.43;2.63;;;;;;;;;;7376378;19;20011;-79
2022/06/30 07:52:22;;;;;;;6.43;2.53;;;;;;;;;;7378207;19;20014;-80
2022/06/30 07:54:47;;;;;;;9.43;2.50;;;;;;;;;;7381945;19;20254;-80
2022/06/30 07:57:15;;;;;;;8.40;2.63;;;;;;;;;;7375399;19;20459;-79
2022/06/30 07:59:40;;;;;;;4.97;2.28;;;;;;;;;;7370202;19;20272;-80
2022/06/30 08:02:06;;;;;;;7.80;2.63;;;;;;;;;;7379431;19;20020;-80
2022/06/30 08:04:31;;;;;;;6.13;1.98;;;;;;;;;;7372321;19;20754;-79
2022/06/30 08:06:56;;;;;;;6.10;2.20;;;;;;;;;;7378392;19;20288;-80
2022/06/30 08:09:22;;;;;;;5.40;2.00;;;;;;;;;;7374142;19;20003;-82
2022/06/30 08:11:47;;;;;;;8.30;2.30;;;;;;;;;;7371439;19;20796;-79
2022/06/30 08:14:12;;;;;;;9.52;2.22;;;;;;;;;;7378530;19;20084;-79
2022/06/30 08:16:37;;;;;;;5.53;2.03;;;;;;;;;;7376638;19;20474;-82
2022/06/30 08:19:03;;;;;;;5.93;2.00;;;;;;;;;;7371704;19;20010;-82
2022/06/30 08:21:28;;;;;;;4.93;2.15;;;;;;;;;;7376828;19;20011;-81
2022/06/30 08:23:53;;;;;;;5.03;2.42;;;;;;;;;;7376167;19;20614;-80
2022/06/30 08:26:18;;;;;;;4.53;1.97;;;;;;;;;;7376463;19;20044;-82
2022/06/30 08:28:44;;;;;;;4.43;2.17;;;;;;;;;;7370272;19;20263;-81
2022/06/30 08:31:09;;;;;;;5.78;2.20;;;;;;;;;;7378897;19;20010;-81
2022/06/30 08:33:34;;;;;;;6.17;2.20;;;;;;;;;;7373869;19;20078;-82
2022/06/30 08:35:59;;;;;;;5.37;1.83;;;;;;;;;;7378016;19;20039;-80
2022/06/30 08:38:25;;;;;;;5.35;1.95;;;;;;;;;;7378817;19;20463;-81
2022/06/30 08:43:34;;;;;;;4.55;2.00;;;;;;;;;;7375029;19;20347;-82
2022/06/30 08:46:01;;;;;;;7.57;2.53;;;;;;;;;;7376833;19;20011;-84
2022/06/30 08:48:27;;;;;;;6.50;2.00;;;;;;;;;;7374282;19;20288;-81
2022/06/30 08:50:57;;;;;;;4.95;1.88;;;;;;;;;;7375510;19;20011;-81
2022/06/30 08:53:23;;;;;;;8.25;2.58;;;;;;;;;;7377166;19;20063;-82
2022/06/30 08:55:48;;;;;;;4.25;1.88;;;;;;;;;;7366300;19;20014;-84
2022/06/30 08:58:14;;;;;;;4.60;1.85;;;;;;;;;;7370859;19;20084;-79
2022/06/30 09:00:40;;;;;;;6.85;2.03;;;;;;;;;;7374949;19;20538;-82
2022/06/30 09:03:06;;;;;;;4.60;1.73;;;;;;;;;;7378740;19;20395;-80
2022/06/30 09:05:31;;;;;;;5.03;1.98;;;;;;;;;;7363170;19;20010;-82
2022/06/30 09:07:57;;;;;;;5.13;1.63;;;;;;;;;;7373591;19;20004;-80
2022/06/30 09:10:24;;;;;;;5.88;1.63;;;;;;;;;;7374441;19;20006;-80
2022/06/30 09:13:00;;;;;;;4.80;1.73;;;;;;;;;;7371125;19;20001;-81
2022/06/30 09:15:27;;;;;;;4.22;1.73;;;;;;;;;;7374634;19;20021;-80
2022/06/30 09:17:53;;;;;;;5.28;1.70;;;;;;;;;;7378525;19;20009;-82
2022/06/30 09:20:19;;;;;;;7.32;1.98;;;;;;;;;;7369573;19;20478;-80
2022/06/30 09:22:44;;;;;;;6.47;1.70;;;;;;;;;;7377760;19;20007;-80
2022/06/30 09:25:10;;;;;;;7.53;1.87;;;;;;;;;;7365362;19;20007;-82
2022/06/30 09:27:37;;;;;;;4.78;1.95;;;;;;;;;;7369129;19;20002;-80
2022/06/30 09:30:04;;;;;;;7.22;1.60;;;;;;;;;;7373835;19;20151;-84
2022/06/30 09:32:30;;;;;;;7.28;2.08;;;;;;;;;;7374457;19;20505;-82
2022/06/30 09:35:06;;;;;;;5.63;1.70;;;;;;;;;;7369220;19;20010;-84
2022/06/30 09:37:31;;;;;;;6.30;1.80;;;;;;;;;;7376523;19;20025;-81
2022/06/30 09:39:57;;;;;;;7.03;1.90;;;;;;;;;;7375297;19;20010;-79
2022/06/30 09:42:35;;;;;;;5.80;1.75;;;;;;;;;;7377898;19;19998;-79
2022/06/30 09:45:00;;;;;;;5.38;1.60;;;;;;;;;;7369821;19;20014;-80
2022/06/30 09:47:25;;;;;;;3.53;1.27;;;;;;;;;;7376361;19;19998;-84
2022/06/30 09:49:52;;;;;;;4.20;1.50;;;;;;;;;;7369808;19;20003;-83
2022/06/30 09:52:21;;;;;;;6.88;1.73;;;;;;;;;;7376695;19;20035;-78
2022/06/30 09:54:54;;;;;;;7.97;2.00;;;;;;;;;;7375236;19;20011;-78
2022/06/30 09:57:20;;;;;;;5.45;1.80;;;;;;;;;;7370164;19;20027;-79
2022/06/30 09:59:45;;;;;;;5.30;1.48;;;;;;;;;;7365775;19;20018;-81
2022/06/30 10:02:11;;;;;;;6.13;1.58;;;;;;;;;;7373141;19;20026;-84
2022/06/30 10:04:51;;;;;;;5.88;1.58;;;;;;;;;;7372480;19;20030;-80
2022/06/30 10:07:16;;;;;;;4.18;1.55;;;;;;;;;;7377455;19;20090;-85
2022/06/30 10:09:42;;;;;;;5.50;1.63;;;;;;;;;;7375986;19;20003;-82
2022/06/30 10:12:07;;;;;;;4.38;1.50;;;;;;;;;;7372735;19;20047;-84
2022/06/30 10:14:34;;;;;;;6.13;1.77;;;;;;;;;;7372263;19;20078;-80
2022/06/30 10:16:59;;;;;;;6.05;1.73;;;;;;;;;;7373090;19;20015;-85
2022/06/30 10:19:24;;;;;;;6.55;1.77;;;;;;;;;;7371060;19;20041;-85
2022/06/30 10:21:49;;;;;;;5.33;1.33;;;;;;;;;;7371287;19;20014;-81
2022/06/30 10:24:18;;;;;;;4.40;1.40;;;;;;;;;;7369244;19;20561;-82
2022/06/30 10:29:27;;;;;;;4.97;1.50;;;;;;;;;;7375821;19;20005;-83
2022/06/30 10:32:01;;;;;;;5.82;1.58;;;;;;;;;;7373484;19;20015;-82
2022/06/30 10:34:32;;;;;;;4.20;1.50;;;;;;;;;;7366018;19;20026;-81
2022/06/30 10:37:04;;;;;;;4.40;1.60;;;;;;;;;;7369266;19;20019;-81
2022/06/30 10:39:38;;;;;;;6.38;1.48;;;;;;;;;;7370617;19;20085;-82
2022/06/30 10:42:04;;;;;;;4.65;1.73;;;;;;;;;;7374128;19;20036;-82
2022/06/30 10:44:31;;;;;;;6.65;1.80;;;;;;;;;;7371908;19;20094;-84
2022/06/30 10:46:56;;;;;;;4.43;1.42;;;;;;;;;;7375456;19;20002;-80
2022/06/30 10:49:24;;;;;;;4.55;1.38;;;;;;;;;;7371307;19;20044;-81
2022/06/30 10:51:50;;;;;;;7.65;1.60;;;;;;;;;;7371542;19;20025;-81
2022/06/30 10:54:41;;;;;;;5.50;1.27;;;;;;;;;;7371922;19;20018;-81
2022/06/30 10:57:06;;;;;;;6.70;1.50;;;;;;;;;;7373200;19;20007;-84
2022/06/30 10:59:41;;;;;;;6.33;1.40;;;;;;;;;;7369097;19;20020;-85
2022/06/30 11:02:06;;;;;;;6.18;1.50;;;;;;;;;;7372508;19;19994;-81
2022/06/30 11:04:31;;;;;;;6.27;1.33;;;;;;;;;;7369525;19;20003;-81
2022/06/30 11:06:58;;;;;;;5.27;1.50;;;;;;;;;;7372849;19;20099;-84
2022/06/30 11:09:42;;;;;;;6.07;1.60;;;;;;;;;;7372253;19;20002;-82
2022/06/30 11:12:07;;;;;;;5.72;1.50;;;;;;;;;;7370052;19;20094;-84
2022/06/30 11:14:32;;;;;;;4.97;1.17;;;;;;;;;;7370761;19;20687;-82
2022/06/30 11:16:58;;;;;;;6.33;1.57;;;;;;;;;;7371807;19;20033;-85
2022/06/30 11:19:24;;;;;;;2.80;1.23;;;;;;;;;;7365216;19;20271;-82
2022/06/30 11:21:49;;;;;;;4.97;1.42;;;;;;;;;;7373824;19;20050;-85
2022/06/30 11:24:15;;;;;;;5.43;1.53;;;;;;;;;;7372256;19;20474;-83
2022/06/30 11:29:26;;;;;;;5.38;1.48;;;;;;;;;;7366578;19;20043;-79
2022/06/30 11:31:57;;;;;;;5.97;1.42;;;;;;;;;;7369656;19;20035;-80
2022/06/30 11:34:22;;;;;;;3.22;1.30;;;;;;;;;;7363897;19;20491;-82
2022/06/30 11:36:47;;;;;;;4.90;1.90;;;;;;;;;;7368146;19;20032;-82
2022/06/30 11:39:20;;;;;;;6.22;1.50;;;;;;;;;;7364950;19;19999;-82
2022/06/30 11:41:55;;;;;;;5.13;1.40;;;;;;;;;;7368396;19;20021;-79
2022/06/30 11:44:32;;;;;;;5.78;1.23;;;;;;;;;;7358134;19;20011;-82
2022/06/30 11:47:02;;;;;;;3.72;1.27;;;;;;;;;;7369946;19;20005;-79
2022/06/30 11:49:39;;;;;;;5.22;1.38;;;;;;;;;;7366101;19;20016;-79
2022/06/30 11:52:17;;;;;;;6.70;1.40;;;;;;;;;;7366344;19;20026;-79
2022/06/30 11:54:46;;;;;;;6.47;1.70;;;;;;;;;;7370704;19;20005;-79
2022/06/30 11:57:11;;;;;;;6.10;1.50;;;;;;;;;;7370708;19;20015;-83
2022/06/30 11:59:42;;;;;;;5.20;1.90;;;;;;;;;;7365166;19;20006;-80
2022/06/30 12:02:07;;;;;;;5.47;1.60;;;;;;;;;;7370934;19;20010;-79
2022/06/30 12:04:33;;;;;;;3.90;1.50;;;;;;;;;;7367517;19;20455;-79
2022/06/30 12:07:00;;;;;;;6.70;1.92;;;;;;;;;;7366920;19;20141;-81
2022/06/30 12:09:25;;;;;;;4.97;1.63;;;;;;;;;;7368568;19;20324;-78
2022/06/30 12:11:52;;;;;;;5.37;1.57;;;;;;;;;;7365054;19;20010;-81
2022/06/30 12:14:17;;;;;;;5.38;1.85;;;;;;;;;;7365140;19;20015;-81
2022/06/30 12:16:43;;;;;;;4.00;1.47;;;;;;;;;;7363837;19;20356;-80
2022/06/30 12:19:08;;;;;;;9.07;1.80;;;;;;;;;;7368180;19;20020;-79
2022/06/30 12:21:34;;;;;;;6.23;1.60;;;;;;;;;;7368851;19;20010;-81
2022/06/30 12:23:59;;;;;;;5.22;1.73;;;;;;;;;;7357409;19;20017;-80
2022/06/30 12:26:25;;;;;;;4.05;1.83;;;;;;;;;;7363304;19;20007;-81
2022/06/30 12:28:52;;;;;;;6.38;1.85;;;;;;;;;;7355627;19;20018;-81
2022/06/30 12:31:27;;;;;;;4.93;1.70;;;;;;;;;;7361863;19;20128;-78
2022/06/30 12:33:54;;;;;;;4.65;1.85;;;;;;;;;;7349576;19;20374;-80
2022/06/30 12:36:20;;;;;;;5.07;1.80;;;;;;;;;;7361524;19;20529;-79
2022/06/30 12:38:45;;;;;;;6.68;1.98;;;;;;;;;;7361612;19;20102;-83
2022/06/30 12:41:13;;;;;;;4.90;1.67;;;;;;;;;;7361818;19;20397;-82
2022/06/30 12:43:42;;;;;;;4.82;1.85;;;;;;;;;;7362985;19;20002;-83
2022/06/30 12:46:09;;;;;;;5.50;2.03;;;;;;;;;;7362079;19;20022;-81
2022/06/30 12:48:41;;;;;;;7.68;1.98;;;;;;;;;;7358540;19;20010;-84
2022/06/30 12:51:08;;;;;;;4.28;1.75;;;;;;;;;;7359121;19;20015;-80
2022/06/30 12:53:33;;;;;;;3.95;1.70;;;;;;;;;;7363173;19;21049;-81
2022/06/30 12:56:01;;;;;;;4.13;1.73;;;;;;;;;;7360718;19;20002;-81
2022/06/30 12:58:40;;;;;;;4.07;1.73;;;;;;;;;;7363021;19;20756;-80
2022/06/30 13:01:06;;;;;;;6.13;1.70;;;;;;;;;;7364947;19;20005;-80
2022/06/30 13:03:31;;;;;;;4.73;1.80;;;;;;;;;;7355043;19;20296;-82
2022/06/30 13:05:58;;;;;;;5.50;1.73;;;;;;;;;;7378268;19;19994;-79
2022/06/30 13:08:24;;;;;;;9.93;2.95;;;;;;;;;;7360749;19;20350;-82
2022/06/30 13:11:07;;;;;;;5.83;1.70;;;;;;;;;;7363757;19;20003;-87
2022/06/30 13:13:33;;;;;;;7.20;1.95;;;;;;;;;;7334787;19;20038;-81
2022/06/30 13:15:58;;;;;;;5.05;1.83;;;;;;;;;;7362370;19;20006;-80
2022/06/30 13:18:23;;;;;;;6.77;2.10;;;;;;;;;;7346479;19;20346;-82
2022/06/30 13:20:48;;;;;;;6.35;1.85;;;;;;;;;;7365237;19;20011;-83
2022/06/30 13:23:13;;;;;;;4.63;1.93;;;;;;;;;;7363732;19;20489;-82
2022/06/30 13:25:39;;;;;;;4.78;1.70;;;;;;;;;;7353429;19;20466;-82
2022/06/30 13:28:04;;;;;;;5.10;1.80;;;;;;;;;;7357950;19;20120;-81
2022/06/30 13:30:29;;;;;;;6.13;1.97;;;;;;;;;;7359311;19;20425;-80
2022/06/30 13:32:54;;;;;;;8.05;2.03;;;;;;;;;;7371539;19;20029;-80
2022/06/30 13:35:19;;;;;;;5.00;2.03;;;;;;;;;;7365836;19;20482;-80
2022/06/30 13:37:45;;;;;;;7.83;1.90;;;;;;;;;;7373451;19;20110;-80
2022/06/30 13:40:10;;;;;;;7.13;1.70;;;;;;;;;;7369925;19;20546;-79
2022/06/30 13:42:35;;;;;;;4.22;1.80;;;;;;;;;;7360161;19;20014;-82
2022/06/30 13:45:00;;;;;;;4.93;1.80;;;;;;;;;;7362614;19;21039;-80
2022/06/30 13:47:26;;;;;;;5.77;2.13;;;;;;;;;;7370192;19;20788;-83
2022/06/30 13:49:51;;;;;;;6.67;1.87;;;;;;;;;;7369762;19;20246;-81
2022/06/30 13:52:16;;;;;;;3.13;1.50;;;;;;;;;;7372951;19;20014;-79
2022/06/30 13:54:41;;;;;;;5.03;2.17;;;;;;;;;;7364366;19;20018;-79
2022/06/30 13:57:07;;;;;;;9.47;2.00;;;;;;;;;;7373035;19;20003;-80
2022/06/30 13:59:32;;;;;;;4.18;1.80;;;;;;;;;;7358878;19;20386;-79
2022/06/30 14:01:58;;;;;;;6.07;2.10;;;;;;;;;;7372362;19;20255;-79
2022/06/30 14:04:23;;;;;;;6.47;2.00;;;;;;;;;;7368561;19;20003;-81
2022/06/30 14:06:48;;;;;;;5.30;1.33;;;;;;;;;;7377272;19;20255;-78
2022/06/30 14:09:13;;;;;;;4.53;1.70;;;;;;;;;;7378238;19;20003;-84
2022/06/30 14:11:39;;;;;;;4.35;1.73;;;;;;;;;;7371532;19;20688;-82
2022/06/30 14:14:04;;;;;;;6.73;1.80;;;;;;;;;;7365236;19;20021;-83
2022/06/30 14:16:29;;;;;;;5.72;1.80;;;;;;;;;;7362410;19;20086;-80
2022/06/30 14:18:55;;;;;;;5.93;1.80;;;;;;;;;;7367551;19;20010;-81
2022/06/30 14:21:20;;;;;;;8.45;1.90;;;;;;;;;;7371025;19;20553;-80
2022/06/30 14:23:45;;;;;;;6.03;2.03;;;;;;;;;;7367171;19;20568;-82
2022/06/30 14:26:12;;;;;;;8.10;2.10;;;;;;;;;;7362685;19;20471;-83
2022/06/30 14:28:38;;;;;;;4.97;1.75;;;;;;;;;;7366242;19;20014;-83
2022/06/30 14:31:04;;;;;;;3.83;1.67;;;;;;;;;;7349566;19;20010;-84
2022/06/30 14:33:29;;;;;;;7.93;1.97;;;;;;;;;;7367625;19;20006;-82
2022/06/30 14:35:54;;;;;;;8.20;2.37;;;;;;;;;;7368998;19;20485;-80
2022/06/30 14:38:19;;;;;;;5.23;1.90;;;;;;;;;;7352147;19;20097;-81
2022/06/30 14:40:44;;;;;;;3.93;1.83;;;;;;;;;;7346959;19;20232;-82
2022/06/30 14:43:12;;;;;;;9.53;2.70;;;;;;;;;;7358259;19;20077;-83
2022/06/30 14:45:38;;;;;;;7.22;1.88;;;;;;;;;;7351522;19;20797;-86
2022/06/30 14:48:03;;;;;;;8.18;2.00;;;;;;;;;;7369909;19;20458;-82
2022/06/30 14:50:28;;;;;;;6.80;1.60;;;;;;;;;;7367214;19;20021;-81
2022/06/30 14:52:53;;;;;;;5.33;2.10;;;;;;;;;;7375006;19;20019;-82
2022/06/30 14:55:20;;;;;;;4.10;1.75;;;;;;;;;;7367811;19;20018;-84
2022/06/30 14:57:45;;;;;;;4.93;1.70;;;;;;;;;;7369699;19;20010;-83
2022/06/30 15:00:12;;;;;;;6.25;1.85;;;;;;;;;;7368693;19;20004;-82
2022/06/30 15:02:37;;;;;;;3.58;1.83;;;;;;;;;;7371854;19;20308;-80
2022/06/30 15:05:03;;;;;;;6.20;1.85;;;;;;;;;;7363233;19;19998;-82
2022/06/30 15:07:28;;;;;;;4.45;1.50;;;;;;;;;;7372315;19;20011;-83
2022/06/30 15:09:54;;;;;;;5.38;1.80;;;;;;;;;;7372509;19;19995;-81
2022/06/30 15:12:19;;;;;;;5.37;1.70;;;;;;;;;;7377919;19;20013;-85
2022/06/30 15:14:44;;;;;;;9.30;1.90;;;;;;;;;;7367922;19;20240;-80
2022/06/30 15:17:10;;;;;;;4.20;1.88;;;;;;;;;;7362419;19;20458;-80
2022/06/30 15:19:35;;;;;;;5.47;2.08;;;;;;;;;;7371271;19;20528;-80
2022/06/30 15:24:44;;;;;;;7.05;1.88;;;;;;;;;;7370022;19;20781;-80
2022/06/30 15:27:09;;;;;;;4.82;2.10;;;;;;;;;;7356933;19;20014;-84
2022/06/30 15:29:35;;;;;;;6.47;2.40;;;;;;;;;;7370847;19;20006;-80
2022/06/30 15:32:04;;;;;;;5.70;2.13;;;;;;;;;;7367033;19;20011;-82
2022/06/30 15:34:29;;;;;;;9.75;3.05;;;;;;;;;;7364957;19;20239;-86
2022/06/30 15:36:56;;;;;;;12.27;3.33;;;;;;;;;;7368599;19;20339;-80
2022/06/30 15:39:21;;;;;;;15.65;4.00;;;;;;;;;;7364699;19;20014;-78
2022/06/30 15:41:47;;;;;;;11.53;3.23;;;;;;;;;;7373682;19;20018;-82
2022/06/30 15:44:12;;;;;;;10.57;3.45;;;;;;;;;;7368301;19;20006;-83
2022/06/30 15:46:40;;;;;;;13.50;3.55;;;;;;;;;;7361146;19;20086;-85
2022/06/30 15:49:05;;;;;;;16.13;3.50;;;;;;;;;;7368271;19;20750;-81
2022/06/30 15:51:30;;;;;;;13.80;4.20;;;;;;;;;;7370714;19;20034;-81
2022/06/30 15:53:56;;;;;;;12.27;3.80;;;;;;;;;;7373996;19;20011;-79
2022/06/30 15:56:21;;;;;;;12.18;4.00;;;;;;;;;;7369549;19;20481;-80
2022/06/30 15:58:47;;;;;;;16.23;4.07;;;;;;;;;;7369265;19;20020;-82
2022/06/30 16:01:12;;;;;;;13.80;4.97;;;;;;;;;;7360984;19;19999;-85
2022/06/30 16:03:37;;;;;;;12.87;5.07;;;;;;;;;;7366434;19;20230;-81
2022/06/30 16:06:03;;;;;;;17.08;4.65;;;;;;;;;;7367235;19;20262;-81
2022/06/30 16:08:29;;;;;;;11.88;3.78;;;;;;;;;;7373747;19;20823;-81
2022/06/30 16:10:54;;;;;;;11.88;4.03;;;;;;;;;;7373992;19;20014;-83
2022/06/30 16:13:19;;;;;;;12.27;4.43;;;;;;;;;;7377888;19;20010;-81
2022/06/30 16:15:44;;;;;;;13.07;4.03;;;;;;;;;;7371436;19;20010;-81
2022/06/30 16:18:10;;;;;;;12.70;4.28;;;;;;;;;;7377731;19;20248;-82
2022/06/30 16:20:35;;;;;;;14.38;4.63;;;;;;;;;;7371615;19;20564;-82
2022/06/30 16:23:00;;;;;;;17.03;5.80;;;;;;;;;;7375246;19;20015;-79
2022/06/30 16:25:29;;;;;;;12.73;5.53;;;;;;;;;;7367772;19;20002;-83
2022/06/30 16:27:55;;;;;;;13.45;6.53;;;;;;;;;;7367998;19;20025;-83
2022/06/30 16:30:20;;;;;;;17.77;6.90;;;;;;;;;;7368173;19;20466;-81
2022/06/30 16:32:46;;;;;;;17.75;6.32;;;;;;;;;;7363965;19;20010;-80
2022/06/30 16:35:11;;;;;;;13.32;5.63;;;;;;;;;;7370331;19;19995;-78
2022/06/30 16:37:36;;;;;;;16.35;5.50;;;;;;;;;;7375655;19;20011;-79
2022/06/30 16:40:02;;;;;;;16.17;5.68;;;;;;;;;;7362211;19;20006;-83
2022/06/30 16:42:27;;;;;;;11.32;4.82;;;;;;;;;;7367107;19;19998;-79
2022/06/30 16:44:52;;;;;;;11.77;4.40;;;;;;;;;;7375978;19;20032;-80
2022/06/30 16:47:17;;;;;;;11.17;3.83;;;;;;;;;;7371113;19;20007;-82
2022/06/30 16:49:43;;;;;;;11.07;3.33;;;;;;;;;;7372640;19;20247;-83
2022/06/30 16:52:08;;;;;;;10.30;3.70;;;;;;;;;;7366049;19;21612;-79
2022/06/30 16:54:33;;;;;;;12.03;3.33;;;;;;;;;;7365513;19;20052;-83
2022/06/30 16:56:59;;;;;;;9.18;3.00;;;;;;;;;;7370558;19;20016;-82
2022/06/30 16:59:24;;;;;;;6.55;2.67;;;;;;;;;;7357799;19;20028;-82
2022/06/30 17:01:49;;;;;;;7.32;2.97;;;;;;;;;;7368783;19;20014;-83
2022/06/30 17:04:14;;;;;;;10.83;2.77;;;;;;;;;;7373185;19;20021;-78
2022/06/30 17:06:40;;;;;;;5.63;2.20;;;;;;;;;;7372658;19;20227;-79
2022/06/30 17:09:05;;;;;;;7.10;2.58;;;;;;;;;;7373078;19;20243;-82
2022/06/30 17:11:30;;;;;;;6.85;2.25;;;;;;;;;;7372760;19;20785;-79
2022/06/30 17:13:56;;;;;;;9.50;2.60;;;;;;;;;;7372635;19;20010;-78
2022/06/30 17:16:21;;;;;;;9.10;3.13;;;;;;;;;;7370213;19;20251;-78
2022/06/30 17:18:47;;;;;;;9.43;2.30;;;;;;;;;;7374932;19;20003;-80
2022/06/30 17:21:12;;;;;;;11.07;3.05;;;;;;;;;;7375718;19;20536;-79
2022/06/30 17:23:39;;;;;;;11.77;2.88;;;;;;;;;;7375319;19;20039;-84
2022/06/30 17:26:05;;;;;;;7.97;2.20;;;;;;;;;;7372006;19;20036;-83
2022/06/30 17:28:31;;;;;;;11.93;1.63;;;;;;;;;;7368630;19;20010;-80
2022/06/30 17:33:24;;;;;;;3.55;1.17;;;;;;;;;;7320590;19;20010;-73
2022/06/30 17:35:50;;;;;;;7.18;1.20;;;;;;;;;;7351642;19;20034;-74
2022/06/30 17:38:15;;;;;;;4.55;1.20;;;;;;;;;;7368261;19;20296;-72
2022/06/30 17:40:40;;;;;;;2.50;0.87;;;;;;;;;;7367383;19;20029;-71
2022/06/30 17:43:06;;;;;;;3.55;1.05;;;;;;;;;;7375831;19;20758;-71
2022/06/30 17:45:31;;;;;;;3.20;1.00;;;;;;;;;;7375404;19;20475;-74
2022/06/30 17:47:58;;;;;;;3.37;0.90;;;;;;;;;;7370348;19;20502;-74
2022/06/30 17:50:24;;;;;;;6.80;1.00;;;;;;;;;;7363787;19;20268;-74
2022/06/30 17:52:49;;;;;;;2.58;0.90;;;;;;;;;;7372967;19;20023;-74
2022/06/30 17:55:14;;;;;;;3.00;1.00;;;;;;;;;;7376328;19;20678;-72
2022/06/30 17:57:39;;;;;;;3.95;1.05;;;;;;;;;;7374838;19;20244;-73
2022/06/30 18:00:05;;;;;;;3.63;0.80;;;;;;;;;;7369395;19;20321;-72
2022/06/30 18:02:30;;;;;;;2.38;1.15;;;;;;;;;;7377338;19;20017;-73
2022/06/30 18:04:56;;;;;;;4.63;1.00;;;;;;;;;;7368637;19;20007;-74
2022/06/30 18:12:49;;;;;;;;;;;;;;;;;;7375284;19;20053;-73
2022/06/30 18:15:14;;;;;;;2.20;0.70;;;;;;;;;;7372755;19;19934;-73
2022/06/30 18:17:40;;;;;;;2.88;1.00;;;;;;;;;;7370246;19;20465;-73
2022/06/30 18:20:05;;;;;;;1.38;0.57;;;;;;;;;;7363905;19;20439;-73
2022/06/30 18:22:32;;;;;;;3.80;1.08;;;;;;;;;;7366643;19;20004;-73
2022/06/30 18:24:57;;;;;;;2.85;0.88;;;;;;;;;;7373276;19;20625;-73
2022/06/30 18:27:23;;;;;;;5.00;1.00;;;;;;;;;;7372533;19;20028;-74
2022/06/30 18:29:48;;;;;;;5.53;0.90;;;;;;;;;;7374190;19;20396;-73
2022/06/30 18:32:14;;;;;;;2.80;0.80;;;;;;;;;;7373810;19;20341;-74
2022/06/30 18:34:39;;;;;;;3.03;0.95;;;;;;;;;;7371934;19;20655;-73
2022/06/30 18:37:05;;;;;;;2.70;0.85;;;;;;;;;;7375756;19;20033;-73
2022/06/30 18:39:30;;;;;;;2.67;0.90;;;;;;;;;;7370841;19;19999;-74
2022/06/30 18:41:55;;;;;;;3.93;0.80;;;;;;;;;;7368802;19;20006;-73
2022/06/30 18:44:21;;;;;;;1.92;0.70;;;;;;;;;;7377230;19;20022;-73
2022/06/30 18:46:46;;;;;;;2.25;0.80;;;;;;;;;;7372891;19;20010;-73
2022/06/30 18:49:11;;;;;;;3.55;1.00;;;;;;;;;;7373129;19;20098;-71
2022/06/30 18:51:37;;;;;;;2.33;0.80;;;;;;;;;;7381778;19;20006;-73
2022/06/30 18:54:02;;;;;;;5.45;1.05;;;;;;;;;;7379763;19;20007;-72
2022/06/30 18:56:32;;;;;;;2.55;0.70;;;;;;;;;;7374698;19;20015;-72
2022/06/30 18:58:57;;;;;;;2.08;0.70;;;;;;;;;;7370284;19;20022;-73
2022/06/30 19:01:23;;;;;;;3.97;1.00;;;;;;;;;;7375806;19;20018;-73
2022/06/30 19:03:48;;;;;;;4.97;1.13;;;;;;;;;;7366152;19;20484;-72
2022/06/30 19:06:13;;;;;;;2.75;0.85;;;;;;;;;;7379236;19;20078;-71
2022/06/30 19:08:38;;;;;;;0.98;0.52;;;;;;;;;;7368248;19;20011;-72
2022/06/30 19:11:04;;;;;;;1.67;0.68;;;;;;;;;;7365850;19;20447;-72
2022/06/30 19:13:29;;;;;;;5.03;0.60;;;;;;;;;;7375504;19;20021;-72
2022/06/30 19:15:57;;;;;;;2.28;0.70;;;;;;;;;;7381626;19;19998;-71
2022/06/30 19:18:23;;;;;;;3.28;0.60;;;;;;;;;;7370873;19;20474;-72
2022/06/30 19:20:48;;;;;;;3.65;0.55;;;;;;;;;;7368333;19;20002;-72
2022/06/30 19:23:14;;;;;;;1.58;0.60;;;;;;;;;;7369136;19;20124;-71
2022/06/30 19:25:39;;;;;;;1.55;0.57;;;;;;;;;;7371106;19;20470;-72
2022/06/30 19:28:04;;;;;;;1.17;0.53;;;;;;;;;;7372251;19;20134;-72
2022/06/30 19:30:29;;;;;;;1.13;0.50;;;;;;;;;;7356578;19;20239;-72
2022/06/30 19:32:54;;;;;;;2.30;0.70;;;;;;;;;;7371911;19;20417;-71
2022/06/30 19:35:20;;;;;;;2.57;0.63;;;;;;;;;;7369736;19;20838;-71
2022/06/30 19:37:45;;;;;;;1.98;0.45;;;;;;;;;;7375249;19;20248;-71
2022/06/30 19:40:10;;;;;;;2.07;0.60;;;;;;;;;;7375637;19;20015;-71
2022/06/30 19:42:41;;;;;;;1.90;0.60;;;;;;;;;;7374048;19;20755;-72
2022/06/30 19:45:07;;;;;;;6.63;1.00;;;;;;;;;;7367290;19;20464;-73
2022/06/30 19:47:32;;;;;;;1.63;0.50;;;;;;;;;;7378450;19;20017;-71
2022/06/30 19:49:58;;;;;;;1.30;0.50;;;;;;;;;;7374052;19;20084;-71
2022/06/30 19:52:23;;;;;;;1.50;0.60;;;;;;;;;;7379435;19;20029;-72
2022/06/30 19:54:49;;;;;;;1.65;0.52;;;;;;;;;;7376401;19;20031;-73
2022/06/30 19:57:14;;;;;;;3.97;0.70;;;;;;;;;;7375503;19;20002;-72
2022/06/30 19:59:39;;;;;;;3.00;0.67;;;;;;;;;;7365899;19;20266;-72
2022/06/30 20:02:05;;;;;;;4.35;0.80;;;;;;;;;;7369514;19;20769;-73
2022/06/30 20:12:41;;;;;;;3.22;0.65;;;;;;;;;;7371119;19;20520;-73
2022/06/30 20:15:07;;;;;;;1.77;0.68;;;;;;;;;;7375807;19;20003;-72
2022/06/30 20:17:32;;;;;;;1.88;0.63;;;;;;;;;;7376894;19;19998;-72
2022/06/30 20:19:58;;;;;;;2.53;0.80;;;;;;;;;;7370569;19;20535;-70
2022/06/30 20:22:23;;;;;;;3.40;0.80;;;;;;;;;;7375647;19;20018;-71
2022/06/30 20:24:49;;;;;;;2.57;1.00;;;;;;;;;;7373725;19;20519;-71
2022/06/30 20:27:15;;;;;;;3.00;0.70;;;;;;;;;;7369811;19;20295;-71